Latest Weather Observations for Falls Creek

IDV60801

Issued at 7:22 am EST Tuesday 27 September 2022 (issued every 10 minutes, with the page automatically refreshed every 10 minutes)

About weather observations | Map of weather stations | Latest weather observations for VIC | Other Formats
Station Details ID: 083084 Name: FALLS CREEK Lat: -36.87 Lon: 147.28 Height: 1765.0 m
Data from the previous 72 hours. | See also: Recent months at Falls Creek
Date/Time
EST
Temp
°C
App
Temp
°C
Dew
Point
°C
Rel
Hum
%
Delta-T
°C
Wind Press
QNH
hPa
Press
MSL
hPa
Rain since
9am
mm
Dir  Spd
km/h
Gust
km/h
Spd
kts
Gust
kts
27/07:00am 2.5 -1.6 2.4 99 0.0 NE 13 17 7 9 1012.6 1012.8 13.4
27/06:30am 2.3 -0.5 2.2 99 0.0 N 6 9 3 5 1012.4 1012.6 13.4
27/06:00am 2.5 -0.2 2.4 99 0.0 N 6 9 3 5 1012.1 1012.3 13.4
27/05:30am 2.8 -0.5 2.7 99 0.0 N 9 11 5 6 1012.1 1012.3 13.4
27/05:00am 2.9 -0.7 2.8 99 0.0 N 11 15 6 8 1012.0 1012.2 13.4
27/04:30am 2.9 -1.1 2.8 99 0.0 NNW 13 17 7 9 1012.0 1012.2 13.2
27/04:00am 2.9 -1.1 2.8 99 0.0 NNW 13 20 7 11 1012.1 1012.3 13.2
27/03:30am 2.8 -1.2 2.7 99 0.0 NNW 13 20 7 11 1012.0 1012.2 13.2
27/03:00am 1.9 -3.6 1.8 99 0.0 WNW 20 28 11 15 1012.4 1012.6 13.0
27/02:30am 3.2 -1.5 3.1 99 0.0 NNW 17 28 9 15 1012.5 1012.7 9.4
27/02:00am 2.6 -1.5 2.5 99 0.0 WNW 13 20 7 11 1012.7 1012.9 9.4
27/01:30am 3.3 -1.4 3.2 99 0.0 NNW 17 26 9 14 1013.1 1013.3 9.0
27/01:00am 3.4 -1.7 3.3 99 0.0 NNW 19 26 10 14 1013.5 1013.7 9.0
27/12:30am 3.2 -2.1 3.1 99 0.0 NNW 20 26 11 14 1013.6 1013.8 9.0
27/12:00am 3.3 -2.7 3.2 99 0.0 NNW 24 32 13 17 1013.7 1013.9 8.8
 
Date/Time
EST
Temp
°C
App
Temp
°C
Dew
Point
°C
Rel
Hum
%
Delta-T
°C
Wind Press
QNH
hPa
Press
MSL
hPa
Rain since
9am
mm
Dir  Spd
km/h
Gust
km/h
Spd
kts
Gust
kts
26/11:30pm 3.2 -2.1 3.1 99 0.0 NNW 20 28 11 15 1013.8 1014.0 7.0
26/11:00pm 2.7 -2.5 2.6 99 0.0 NW 19 26 10 14 1014.2 1014.4 6.8
26/10:30pm 2.7 -1.7 2.6 99 0.0 NNW 15 22 8 12 1014.4 1014.7 6.0
26/10:00pm 2.7 -2.1 2.6 99 0.0 NNW 17 22 9 12 1014.4 1014.7 5.0
26/09:30pm 2.5 -2.7 2.4 99 0.0 NNW 19 26 10 14 1014.4 1014.7 4.6
26/09:00pm 2.4 -3.4 2.3 99 0.0 NNW 22 30 12 16 1014.5 1014.8 4.4
26/08:30pm 2.1 -4.1 2.0 99 0.0 NNW 24 32 13 17 1014.4 1014.7 4.2
26/08:00pm 1.1 -4.0 1.0 99 0.0 NNW 17 24 9 13 1014.5 1014.8 4.0
26/07:30pm 0.4 -5.1 0.3 99 0.0 NNW 19 28 10 15 1014.3 1014.5 3.8
26/07:00pm 0.2 -6.0 -0.2 97 0.2 NNW 22 28 12 15 1014.2 1014.4 3.8
26/06:30pm 0.5 -7.5 0.1 97 0.2 NNW 32 41 17 22 1013.9 1014.2 3.0
26/06:00pm 1.8 -5.0 0.8 93 0.4 NNW 26 37 14 20 1013.8 1014.0 2.8
26/05:30pm 1.9 -4.4 1.8 99 0.0 N 24 33 13 18 1013.7 1013.9 2.6
26/05:00pm 1.6 -4.0 1.5 99 0.0 N 20 28 11 15 1013.6 1013.8 2.0
26/04:30pm 1.2 -3.8 1.1 99 0.0 N 17 22 9 12 1013.5 1013.7 1.2
26/04:00pm 0.9 -4.8 0.8 99 0.0 N 20 26 11 14 1013.8 1014.0 0.6
26/03:30pm 0.5 -7.8 -0.4 94 0.4 N 33 46 18 25 1014.0 1014.3 0.2
26/03:01pm 2.8 -5.0 -4.2 60 2.6 NNW 28 46 15 25 1014.5 1014.8 0.0
26/03:00pm 3.1 -4.3 -3.7 61 2.6 NNW 26 44 14 24 1014.6 1014.9 0.0
26/02:30pm 3.2 -2.5 0.3 81 1.2 N 20 26 11 14 1014.6 1014.9 0.0
26/02:00pm 2.5 -2.0 2.2 98 0.1 NNW 15 19 8 10 1015.0 1015.3 0.0
26/01:30pm 3.5 -1.8 2.0 90 0.7 NW 19 26 10 14 1015.2 1015.5 0.0
26/01:00pm 5.3 -0.6 -0.5 66 2.5 N 20 26 11 14 1015.5 1015.8 0.0
26/12:30pm 5.5 0.5 1.2 74 1.9 N 17 24 9 13 1015.7 1016.0 0.0
26/12:00pm 4.5 -0.1 1.4 80 1.4 NNE 15 22 8 12 1015.9 1016.3 0.0
26/11:30am 3.2 -0.4 0.9 85 1.0 N 9 19 5 10 1016.8 1017.1 0.0
26/11:00am 2.9 -2.2 -2.0 70 2.0 NW 15 20 8 11 1017.4 1017.8 0.0
26/10:30am 5.0 1.4 2.9 86 1.0 N 11 17 6 9 1017.3 1017.6 0.0
26/10:00am 4.7 1.9 1.9 82 1.3 WSW 6 9 3 5 1017.4 1017.8 0.0
26/09:30am 4.0 0.1 1.4 83 1.1 W 11 15 6 8 1017.6 1018.0 0.0
26/09:00am 4.1 1.0 1.5 83 1.1 NW 7 11 4 6 1017.7 1018.1 1.6
26/08:30am 3.6 -0.9 -0.2 76 1.6 NW 13 17 7 9 1017.7 1018.1 1.0
26/08:00am 4.3 -0.3 1.7 83 1.2 WSW 15 20 8 11 1017.4 1017.8 1.0
26/07:30am 4.0 0.0 -2.2 64 2.5 W 9 13 5 7 1017.3 1017.6 0.6
26/07:00am 4.2 -2.5 -10.6 33 5.1 W 19 22 10 12 1017.0 1017.4 0.0
26/06:30am 4.8 1.0 -16.8 19 6.4 NW 2 7 1 4 1016.8 1017.1 0.0
26/06:00am 4.5 -1.7 -14.8 23 6.0 W 15 17 8 9 1016.8 1017.1 0.0
26/05:30am 3.8 -1.8 -10.6 34 4.9 W 13 17 7 9 1016.9 1017.3 0.0
26/05:00am 5.0 0.4 -16.1 20 6.4 NE 6 7 3 4 1016.8 1017.1 0.0
26/04:30am 5.7 1.0 -18.1 16 6.9 NE 6 7 3 4 1016.4 1016.8 0.0
26/04:00am 4.7 0.2 -15.7 21 6.2 NE 6 7 3 4 1016.2 1016.5 0.0
26/03:30am 4.8 0.6 -16.8 19 6.4 NE 4 7 2 4 1016.5 1016.9 0.0
26/03:00am 5.6 0.4 -18.2 16 6.9 NE 9 11 5 6 1016.7 1017.0 0.0
26/02:30am 5.7 0.9 -17.4 17 6.8 NE 7 13 4 7 1017.0 1017.4 0.0
26/02:00am 4.1 0.2 -6.5 46 3.8 ENE 6 9 3 5 1017.3 1017.6 0.0
26/01:30am 4.4 0.5 -10.8 32 5.2 ENE 4 6 2 3 1017.6 1018.0 0.0
26/01:00am 4.6 -0.7 -12.3 28 5.6 ENE 11 13 6 7 1017.7 1018.1 0.0
26/12:30am 4.7 -0.1 -11.0 31 5.4 ENE 9 11 5 6 1017.6 1018.0 0.0
26/12:00am 3.2 -1.2 -2.3 67 2.2 ENE 11 13 6 7 1018.0 1018.4 0.0
 
Date/Time
EST
Temp
°C
App
Temp
°C
Dew
Point
°C
Rel
Hum
%
Delta-T
°C
Wind Press
QNH
hPa
Press
MSL
hPa
Rain since
9am
mm
Dir  Spd
km/h
Gust
km/h
Spd
kts
Gust
kts
25/11:30pm 3.7 0.0 -2.7 63 2.5 E 7 9 4 5 1018.1 1018.5 0.0
25/11:00pm 4.4 0.2 -4.3 53 3.3 E 9 11 5 6 1017.9 1018.3 0.0
25/10:30pm 4.4 -0.2 -4.1 54 3.3 E 11 13 6 7 1018.0 1018.4 0.0
25/10:00pm 3.9 -0.3 -4.3 55 3.1 E 9 11 5 6 1018.2 1018.6 0.0
25/09:30pm 4.3 1.5 -6.6 45 3.9 CALM 0 0 0 0 1018.1 1018.5 0.0
25/09:00pm 4.2 1.2 -5.0 51 3.5 E 2 4 1 2 1018.1 1018.5 0.0
25/08:30pm 4.0 1.4 -1.4 68 2.2 E 2 6 1 3 1017.9 1018.3 0.0
25/08:00pm 3.0 0.8 0.9 86 0.9 ESE 2 7 1 4 1017.6 1018.0 0.0
25/07:30pm 2.5 -0.6 0.4 86 0.9 SSE 6 7 3 4 1017.7 1018.1 0.0
25/07:00pm 1.6 -1.8 -0.3 87 0.8 S 7 9 4 5 1017.1 1017.5 0.0
25/06:30pm 1.0 -1.3 0.7 98 0.1 WNW 2 7 1 4 1016.8 1017.1 0.0
25/06:00pm 1.1 -1.9 0.7 97 0.2 NW 6 7 3 4 1016.7 1017.0 0.0
25/05:30pm 1.7 -1.3 1.1 96 0.3 WNW 6 9 3 5 1016.4 1016.8 0.0
25/05:00pm 2.1 -1.8 1.2 94 0.4 WNW 11 19 6 10 1016.4 1016.8 0.0
25/04:30pm 2.6 -0.9 1.3 91 0.6 WNW 9 13 5 7 1016.2 1016.5 0.0
25/04:00pm 2.8 -0.1 1.2 89 0.7 NW 6 13 3 7 1015.9 1016.3 0.0
25/03:30pm 3.2 -1.9 0.8 84 1.0 NW 17 26 9 14 1015.7 1016.0 0.0
25/03:00pm 4.3 -0.8 0.6 77 1.6 NW 17 24 9 13 1015.7 1016.0 0.0
25/02:30pm 4.2 -0.6 0.0 74 1.8 NW 15 24 8 13 1015.4 1015.7 0.0
25/02:00pm 4.2 -0.7 -0.4 72 1.9 WNW 15 22 8 12 1015.5 1015.8 0.0
25/01:30pm 4.5 -0.5 -0.9 68 2.3 NW 15 22 8 12 1015.5 1015.8 0.0
25/01:00pm 3.8 -1.2 -1.5 68 2.2 WNW 15 24 8 13 1015.2 1015.5 0.0
25/12:30pm 3.6 -1.4 -1.0 72 1.9 WNW 15 22 8 12 1015.6 1015.9 0.0
25/12:00pm 4.4 -0.2 -3.8 55 3.2 NW 11 17 6 9 1015.7 1016.0 0.0
25/11:30am 2.9 -1.9 -2.6 67 2.2 WNW 13 19 7 10 1015.9 1016.3 0.0
25/11:00am 2.7 -1.4 -0.4 80 1.3 NW 11 17 6 9 1015.9 1016.3 0.0
25/10:30am 2.1 -2.8 -0.6 82 1.1 NNW 15 20 8 11 1015.7 1016.0 0.0
25/10:00am 2.8 -1.5 -1.7 72 1.8 NNW 11 17 6 9 1015.6 1015.9 0.0
25/09:30am 2.3 -2.5 -2.8 69 2.0 NNW 13 17 7 9 1015.5 1015.8 0.0
25/09:00am 1.5 -2.7 -3.7 68 2.0 NNW 9 13 5 7 1015.0 1015.3 0.4
25/08:30am 1.7 -3.0 -5.2 60 2.6 NNW 11 20 6 11 1015.1 1015.4 0.4
25/08:00am 0.9 -3.2 -8.8 48 3.2 NNW 6 11 3 6 1014.9 1015.2 0.4
25/07:30am 1.1 -3.9 -13.0 34 4.2 NW 9 13 5 7 1014.9 1015.2 0.4
25/07:00am 1.4 -4.1 -15.5 27 4.8 NW 11 19 6 10 1014.6 1014.9 0.4
25/06:30am 1.3 -5.4 -18.0 22 5.1 WNW 17 22 9 12 1014.2 1014.4 0.4
25/06:00am 0.6 -5.7 -15.8 28 4.5 WNW 15 20 8 11 1013.9 1014.2 0.4
25/05:30am 0.3 -6.2 -14.1 33 4.1 WNW 17 22 9 12 1013.6 1013.8 0.4
25/05:00am 0.2 -6.4 -14.9 31 4.2 WNW 17 24 9 13 1013.3 1013.6 0.4
25/04:30am 0.3 -6.8 -13.7 34 4.0 NW 20 24 11 13 1013.2 1013.4 0.4
25/04:00am 0.4 -6.6 -12.2 38 3.8 NW 20 26 11 14 1013.2 1013.4 0.4
25/03:30am -0.9 -7.1 -4.8 75 1.4 NNW 19 26 10 14 1013.5 1013.7 0.4
25/03:00am -0.3 -7.2 -5.9 66 1.9 NNW 22 30 12 16 1013.5 1013.7 0.4
25/02:30am -0.8 -6.3 -1.8 93 0.3 NNW 17 24 9 13 1013.7 1013.9 0.4
25/02:00am -0.7 -6.6 -0.8 99 0.0 NNW 20 30 11 16 1013.8 1014.0 0.4
25/01:30am -0.2 -6.4 -0.3 99 0.0 NNW 22 32 12 17 1014.2 1014.4 0.4
25/01:00am 0.0 -6.2 -0.1 99 0.0 NNW 22 33 12 18 1014.2 1014.4 0.4
25/12:30am 0.5 -5.6 0.4 99 0.0 NNW 22 32 12 17 1014.3 1014.5 0.4
25/12:00am 0.7 -5.8 0.6 99 0.0 NNW 24 35 13 19 1014.4 1014.7 0.2
 
Date/Time
EST
Temp
°C
App
Temp
°C
Dew
Point
°C
Rel
Hum
%
Delta-T
°C
Wind Press
QNH
hPa
Press
MSL
hPa
Rain since
9am
mm
Dir  Spd
km/h
Gust
km/h
Spd
kts
Gust
kts
24/11:30pm 1.0 -5.0 0.9 99 0.0 NNW 22 35 12 19 1014.3 1014.5 0.2
24/11:00pm 0.9 -4.2 0.8 99 0.0 NNW 17 28 9 15 1014.3 1014.5 0.2
24/10:30pm 1.1 -2.8 1.0 99 0.0 N 11 15 6 8 1014.5 1014.8 0.2
24/10:00pm 1.4 -2.5 1.3 99 0.0 NW 11 17 6 9 1014.5 1014.8 0.2
24/09:30pm 1.2 -1.8 0.8 97 0.2 WNW 6 7 3 4 1014.5 1014.8 0.2
24/09:00pm 1.5 -1.4 1.2 98 0.1 WNW 6 7 3 4 1014.5 1014.8 0.2
24/08:30pm 1.6 -1.5 1.5 99 0.0 WNW 7 11 4 6 1014.5 1014.8 0.2
24/08:00pm 1.9 -1.0 1.5 97 0.2 WNW 6 9 3 5 1014.4 1014.7 0.2
24/07:30pm 2.2 -0.8 2.1 99 0.0 W 7 13 4 7 1014.0 1014.3 0.2
24/07:00pm 2.3 -0.7 2.2 99 0.0 WNW 7 19 4 10 1013.8 1014.0 0.2
24/06:30pm 2.7 -0.6 2.6 99 0.0 NW 9 15 5 8 1013.6 1013.8 0.2
24/06:00pm 3.1 -0.2 2.7 97 0.2 NW 9 13 5 7 1013.3 1013.6 0.2
24/05:30pm 3.5 0.7 3.4 99 0.0 NNW 7 15 4 8 1013.1 1013.3 0.2
24/05:00pm 3.9 0.7 3.0 94 0.4 NNW 9 17 5 9 1012.9 1013.1 0.2
24/04:30pm 3.8 1.0 3.2 96 0.3 NNW 7 13 4 7 1012.6 1012.8 0.0
24/04:00pm 4.1 0.9 2.9 92 0.5 NNW 9 19 5 10 1012.4 1012.6 0.0
24/03:30pm 3.8 0.1 2.5 91 0.6 WNW 11 17 6 9 1012.5 1012.7 0.0
24/03:00pm 4.5 1.7 3.2 91 0.6 N 7 11 4 6 1012.4 1012.6 0.0
24/02:30pm 5.0 1.3 2.5 84 1.1 NW 11 17 6 9 1012.4 1012.6 0.0
24/02:00pm 4.6 2.1 3.7 94 0.4 W 6 9 3 5 1012.4 1012.6 0.0
24/01:30pm 4.0 0.8 3.0 93 0.5 NNW 9 19 5 10 1012.4 1012.6 0.0
24/01:00pm 4.4 1.3 3.8 96 0.3 WNW 9 15 5 8 1012.5 1012.7 0.0
24/12:30pm 4.6 0.9 4.5 99 0.0 NW 13 20 7 11 1012.7 1012.9 0.0
24/12:00pm 3.6 0.9 3.5 99 0.0 NW 7 13 4 7 1012.9 1013.1 0.0
24/11:30am 3.4 -0.1 3.3 99 0.0 NW 11 17 6 9 1013.0 1013.2 0.0
24/11:00am 3.4 0.2 3.3 99 0.0 NNW 9 17 5 9 1012.9 1013.1 0.0
24/10:30am 3.8 0.3 3.7 99 0.0 NW 11 17 6 9 1013.0 1013.2 0.0
24/10:00am 3.8 0.7 3.7 99 0.0 NNW 9 15 5 8 1013.0 1013.2 0.0
24/09:30am 3.2 0.6 3.1 99 0.0 NNW 6 9 3 5 1013.0 1013.2 0.0
24/09:00am 1.2 -1.4 1.1 99 0.0 WSW 4 7 2 4 1013.0 1013.2 21.6
24/08:30am 0.6 -3.0 0.5 99 0.0 SSW 9 11 5 6 1012.9 1013.1 21.6
24/08:00am 0.5 -3.5 0.4 99 0.0 S 11 13 6 7 1012.6 1012.8 21.6
24/07:30am 0.5 -3.9 0.4 99 0.0 S 13 17 7 9 1012.5 1012.7 21.2

Other formats

Comma delimited format used in spreadsheet applications
http://www.bom.gov.au/fwo/IDV60801/IDV60801.94903.axf

JavaScript Object Notation format (JSON) in row-major order
http://www.bom.gov.au/fwo/IDV60801/IDV60801.94903.json

Data quality

Most of these data are generated automatically and are frequently updated. Quality checks on data are not normally performed. It is possible for incorrect values to appear. Refer to information at About Latest Weather Observations and please check the disclaimer before using these data.